sensor_id;sensor_type;location;lat;lon;timestamp;P1;durP1;ratioP1;P2;durP2;ratioP2
52586;SDS011;38480;52.724;6.436;2024-02-21T00:00:42;19.73;;;6.80;;
52586;SDS011;38480;52.724;6.436;2024-02-21T00:03:08;22.23;;;7.00;;
52586;SDS011;38480;52.724;6.436;2024-02-21T00:05:34;16.40;;;4.60;;
52586;SDS011;38480;52.724;6.436;2024-02-21T00:08:02;19.07;;;5.20;;
52586;SDS011;38480;52.724;6.436;2024-02-21T00:10:31;21.07;;;8.27;;
52586;SDS011;38480;52.724;6.436;2024-02-21T00:12:58;13.63;;;5.67;;
52586;SDS011;38480;52.724;6.436;2024-02-21T00:15:27;11.40;;;4.83;;
52586;SDS011;38480;52.724;6.436;2024-02-21T00:17:53;18.93;;;6.07;;
52586;SDS011;38480;52.724;6.436;2024-02-21T00:20:19;18.00;;;5.47;;
52586;SDS011;38480;52.724;6.436;2024-02-21T00:22:45;18.43;;;4.73;;
52586;SDS011;38480;52.724;6.436;2024-02-21T00:25:11;19.57;;;6.77;;
52586;SDS011;38480;52.724;6.436;2024-02-21T00:27:37;14.33;;;5.17;;
52586;SDS011;38480;52.724;6.436;2024-02-21T00:30:04;13.87;;;5.10;;
52586;SDS011;38480;52.724;6.436;2024-02-21T00:32:30;19.53;;;6.33;;
52586;SDS011;38480;52.724;6.436;2024-02-21T00:34:59;23.50;;;5.90;;
52586;SDS011;38480;52.724;6.436;2024-02-21T00:37:25;12.43;;;4.93;;
52586;SDS011;38480;52.724;6.436;2024-02-21T00:39:51;17.20;;;5.37;;
52586;SDS011;38480;52.724;6.436;2024-02-21T00:42:17;14.90;;;4.40;;
52586;SDS011;38480;52.724;6.436;2024-02-21T00:44:43;15.37;;;4.43;;
52586;SDS011;38480;52.724;6.436;2024-02-21T00:47:10;23.57;;;5.73;;
52586;SDS011;38480;52.724;6.436;2024-02-21T00:49:36;22.77;;;5.47;;
52586;SDS011;38480;52.724;6.436;2024-02-21T00:52:02;25.57;;;6.03;;
52586;SDS011;38480;52.724;6.436;2024-02-21T00:54:31;15.97;;;5.77;;
52586;SDS011;38480;52.724;6.436;2024-02-21T00:56:57;18.30;;;5.70;;
52586;SDS011;38480;52.724;6.436;2024-02-21T00:59:23;17.63;;;5.83;;
52586;SDS011;38480;52.724;6.436;2024-02-21T01:01:49;24.07;;;6.50;;
52586;SDS011;38480;52.724;6.436;2024-02-21T01:04:15;25.27;;;6.20;;
52586;SDS011;38480;52.724;6.436;2024-02-21T01:06:41;22.30;;;6.23;;
52586;SDS011;38480;52.724;6.436;2024-02-21T01:09:09;24.40;;;6.10;;
52586;SDS011;38480;52.724;6.436;2024-02-21T01:11:35;18.47;;;7.33;;
52586;SDS011;38480;52.724;6.436;2024-02-21T01:14:01;23.77;;;6.13;;
52586;SDS011;38480;52.724;6.436;2024-02-21T01:16:27;23.63;;;6.97;;
52586;SDS011;38480;52.724;6.436;2024-02-21T01:18:53;34.77;;;9.30;;
52586;SDS011;38480;52.724;6.436;2024-02-21T01:21:19;24.60;;;6.53;;
52586;SDS011;38480;52.724;6.436;2024-02-21T01:23:45;23.23;;;7.37;;
52586;SDS011;38480;52.724;6.436;2024-02-21T01:26:11;22.17;;;6.83;;
52586;SDS011;38480;52.724;6.436;2024-02-21T01:28:40;27.47;;;7.70;;
52586;SDS011;38480;52.724;6.436;2024-02-21T01:31:06;30.43;;;6.80;;
52586;SDS011;38480;52.724;6.436;2024-02-21T01:33:32;21.83;;;6.73;;
52586;SDS011;38480;52.724;6.436;2024-02-21T01:36:03;28.93;;;6.33;;
52586;SDS011;38480;52.724;6.436;2024-02-21T01:38:31;29.87;;;8.03;;
52586;SDS011;38480;52.724;6.436;2024-02-21T01:40:57;32.07;;;7.80;;
52586;SDS011;38480;52.724;6.436;2024-02-21T01:43:23;23.53;;;6.93;;
52586;SDS011;38480;52.724;6.436;2024-02-21T01:45:50;23.97;;;7.70;;
52586;SDS011;38480;52.724;6.436;2024-02-21T01:48:17;26.03;;;6.67;;
52586;SDS011;38480;52.724;6.436;2024-02-21T01:50:44;33.50;;;7.33;;
52586;SDS011;38480;52.724;6.436;2024-02-21T01:53:10;22.40;;;7.27;;
52586;SDS011;38480;52.724;6.436;2024-02-21T01:55:42;27.57;;;6.33;;
52586;SDS011;38480;52.724;6.436;2024-02-21T01:58:08;30.80;;;8.23;;
52586;SDS011;38480;52.724;6.436;2024-02-21T02:00:35;31.03;;;8.67;;
52586;SDS011;38480;52.724;6.436;2024-02-21T02:03:02;29.17;;;7.53;;
52586;SDS011;38480;52.724;6.436;2024-02-21T02:05:29;28.07;;;7.03;;
52586;SDS011;38480;52.724;6.436;2024-02-21T02:07:55;27.33;;;7.33;;
52586;SDS011;38480;52.724;6.436;2024-02-21T02:10:21;28.53;;;8.07;;
52586;SDS011;38480;52.724;6.436;2024-02-21T02:12:47;26.23;;;8.40;;
52586;SDS011;38480;52.724;6.436;2024-02-21T02:15:13;35.80;;;11.03;;
52586;SDS011;38480;52.724;6.436;2024-02-21T02:17:39;30.10;;;10.77;;
52586;SDS011;38480;52.724;6.436;2024-02-21T02:20:05;41.10;;;11.40;;
52586;SDS011;38480;52.724;6.436;2024-02-21T02:22:32;41.73;;;12.23;;
52586;SDS011;38480;52.724;6.436;2024-02-21T02:25:01;47.53;;;14.50;;
52586;SDS011;38480;52.724;6.436;2024-02-21T02:27:27;44.13;;;15.77;;
52586;SDS011;38480;52.724;6.436;2024-02-21T02:29:53;39.83;;;15.07;;
52586;SDS011;38480;52.724;6.436;2024-02-21T02:32:19;42.17;;;15.43;;
52586;SDS011;38480;52.724;6.436;2024-02-21T02:34:45;47.30;;;16.43;;
52586;SDS011;38480;52.724;6.436;2024-02-21T02:37:11;46.63;;;15.80;;
52586;SDS011;38480;52.724;6.436;2024-02-21T02:39:37;47.13;;;15.90;;
52586;SDS011;38480;52.724;6.436;2024-02-21T02:42:03;43.00;;;16.00;;
52586;SDS011;38480;52.724;6.436;2024-02-21T02:44:29;60.60;;;17.93;;
52586;SDS011;38480;52.724;6.436;2024-02-21T02:46:55;50.73;;;16.30;;
52586;SDS011;38480;52.724;6.436;2024-02-21T02:49:21;47.97;;;16.60;;
52586;SDS011;38480;52.724;6.436;2024-02-21T02:51:47;45.93;;;15.50;;
52586;SDS011;38480;52.724;6.436;2024-02-21T02:54:13;55.03;;;17.23;;
52586;SDS011;38480;52.724;6.436;2024-02-21T02:56:39;61.43;;;17.50;;
52586;SDS011;38480;52.724;6.436;2024-02-21T02:59:05;50.83;;;16.23;;
52586;SDS011;38480;52.724;6.436;2024-02-21T03:01:33;58.07;;;17.93;;
52586;SDS011;38480;52.724;6.436;2024-02-21T03:04:00;58.83;;;18.33;;
52586;SDS011;38480;52.724;6.436;2024-02-21T03:06:26;57.77;;;18.47;;
52586;SDS011;38480;52.724;6.436;2024-02-21T03:08:52;59.43;;;18.70;;
52586;SDS011;38480;52.724;6.436;2024-02-21T03:11:19;55.67;;;17.73;;
52586;SDS011;38480;52.724;6.436;2024-02-21T03:13:48;65.87;;;18.53;;
52586;SDS011;38480;52.724;6.436;2024-02-21T03:16:16;58.30;;;17.77;;
52586;SDS011;38480;52.724;6.436;2024-02-21T03:18:42;43.60;;;15.13;;
52586;SDS011;38480;52.724;6.436;2024-02-21T03:21:08;60.43;;;17.13;;
52586;SDS011;38480;52.724;6.436;2024-02-21T03:23:34;62.13;;;17.43;;
52586;SDS011;38480;52.724;6.436;2024-02-21T03:26:01;53.47;;;18.23;;
52586;SDS011;38480;52.724;6.436;2024-02-21T03:28:27;59.00;;;17.07;;
52586;SDS011;38480;52.724;6.436;2024-02-21T03:30:53;50.77;;;16.30;;
52586;SDS011;38480;52.724;6.436;2024-02-21T03:33:20;50.67;;;14.97;;
52586;SDS011;38480;52.724;6.436;2024-02-21T03:35:47;53.67;;;16.30;;
52586;SDS011;38480;52.724;6.436;2024-02-21T03:38:13;48.43;;;15.90;;
52586;SDS011;38480;52.724;6.436;2024-02-21T03:40:39;48.35;;;16.10;;
52586;SDS011;38480;52.724;6.436;2024-02-21T03:43:05;51.07;;;15.27;;
52586;SDS011;38480;52.724;6.436;2024-02-21T03:45:31;48.97;;;14.37;;
52586;SDS011;38480;52.724;6.436;2024-02-21T03:47:58;51.80;;;15.53;;
52586;SDS011;38480;52.724;6.436;2024-02-21T03:50:24;55.27;;;17.80;;
52586;SDS011;38480;52.724;6.436;2024-02-21T03:52:52;52.13;;;14.57;;
52586;SDS011;38480;52.724;6.436;2024-02-21T03:55:18;53.83;;;16.83;;
52586;SDS011;38480;52.724;6.436;2024-02-21T03:57:44;45.47;;;15.93;;
52586;SDS011;38480;52.724;6.436;2024-02-21T04:00:10;55.07;;;14.40;;
52586;SDS011;38480;52.724;6.436;2024-02-21T04:02:37;45.03;;;13.63;;
52586;SDS011;38480;52.724;6.436;2024-02-21T04:05:03;41.93;;;15.37;;
52586;SDS011;38480;52.724;6.436;2024-02-21T04:07:30;34.97;;;14.43;;
52586;SDS011;38480;52.724;6.436;2024-02-21T04:09:56;40.53;;;14.37;;
52586;SDS011;38480;52.724;6.436;2024-02-21T04:12:22;56.67;;;13.97;;
52586;SDS011;38480;52.724;6.436;2024-02-21T04:14:48;45.60;;;13.77;;
52586;SDS011;38480;52.724;6.436;2024-02-21T04:17:14;40.20;;;12.80;;
52586;SDS011;38480;52.724;6.436;2024-02-21T04:19:40;41.50;;;13.43;;
52586;SDS011;38480;52.724;6.436;2024-02-21T04:22:06;32.10;;;12.90;;
52586;SDS011;38480;52.724;6.436;2024-02-21T04:24:32;45.83;;;14.27;;
52586;SDS011;38480;52.724;6.436;2024-02-21T04:26:58;60.63;;;14.57;;
52586;SDS011;38480;52.724;6.436;2024-02-21T04:29:24;45.83;;;14.37;;
52586;SDS011;38480;52.724;6.436;2024-02-21T04:31:50;43.80;;;14.27;;
52586;SDS011;38480;52.724;6.436;2024-02-21T04:34:16;36.83;;;14.70;;
52586;SDS011;38480;52.724;6.436;2024-02-21T04:36:42;45.70;;;13.60;;
52586;SDS011;38480;52.724;6.436;2024-02-21T04:39:08;35.67;;;13.80;;
52586;SDS011;38480;52.724;6.436;2024-02-21T04:41:34;50.10;;;12.57;;
52586;SDS011;38480;52.724;6.436;2024-02-21T04:44:00;39.27;;;12.70;;
52586;SDS011;38480;52.724;6.436;2024-02-21T04:46:28;36.30;;;13.13;;
52586;SDS011;38480;52.724;6.436;2024-02-21T04:48:54;44.70;;;12.30;;
52586;SDS011;38480;52.724;6.436;2024-02-21T04:51:21;48.60;;;13.93;;
52586;SDS011;38480;52.724;6.436;2024-02-21T04:53:48;47.27;;;14.97;;
52586;SDS011;38480;52.724;6.436;2024-02-21T04:56:14;41.47;;;13.03;;
52586;SDS011;38480;52.724;6.436;2024-02-21T04:58:40;42.93;;;13.23;;
52586;SDS011;38480;52.724;6.436;2024-02-21T05:01:06;44.07;;;12.93;;
52586;SDS011;38480;52.724;6.436;2024-02-21T05:03:32;42.77;;;12.80;;
52586;SDS011;38480;52.724;6.436;2024-02-21T05:05:59;45.80;;;13.47;;
52586;SDS011;38480;52.724;6.436;2024-02-21T05:08:25;41.87;;;11.83;;
52586;SDS011;38480;52.724;6.436;2024-02-21T05:10:52;46.30;;;14.57;;
52586;SDS011;38480;52.724;6.436;2024-02-21T05:13:18;43.77;;;12.23;;
52586;SDS011;38480;52.724;6.436;2024-02-21T05:15:44;40.87;;;12.53;;
52586;SDS011;38480;52.724;6.436;2024-02-21T05:18:10;42.70;;;12.87;;
52586;SDS011;38480;52.724;6.436;2024-02-21T05:20:36;36.73;;;11.57;;
52586;SDS011;38480;52.724;6.436;2024-02-21T05:23:02;46.17;;;12.87;;
52586;SDS011;38480;52.724;6.436;2024-02-21T05:25:28;44.67;;;11.10;;
52586;SDS011;38480;52.724;6.436;2024-02-21T05:27:54;45.77;;;11.93;;
52586;SDS011;38480;52.724;6.436;2024-02-21T05:30:20;40.17;;;11.27;;
52586;SDS011;38480;52.724;6.436;2024-02-21T05:32:46;36.23;;;10.53;;
52586;SDS011;38480;52.724;6.436;2024-02-21T05:35:12;32.27;;;11.33;;
52586;SDS011;38480;52.724;6.436;2024-02-21T05:37:39;51.53;;;13.63;;
52586;SDS011;38480;52.724;6.436;2024-02-21T05:40:05;41.60;;;10.70;;
52586;SDS011;38480;52.724;6.436;2024-02-21T05:42:31;38.87;;;11.20;;
52586;SDS011;38480;52.724;6.436;2024-02-21T05:44:57;38.23;;;13.10;;
52586;SDS011;38480;52.724;6.436;2024-02-21T05:47:23;31.97;;;12.37;;
52586;SDS011;38480;52.724;6.436;2024-02-21T05:49:49;42.13;;;12.83;;
52586;SDS011;38480;52.724;6.436;2024-02-21T05:52:18;40.83;;;11.90;;
52586;SDS011;38480;52.724;6.436;2024-02-21T05:54:44;32.40;;;12.17;;
52586;SDS011;38480;52.724;6.436;2024-02-21T05:57:10;43.03;;;11.67;;
52586;SDS011;38480;52.724;6.436;2024-02-21T05:59:39;38.90;;;13.37;;
52586;SDS011;38480;52.724;6.436;2024-02-21T06:02:06;45.73;;;12.70;;
52586;SDS011;38480;52.724;6.436;2024-02-21T06:04:33;33.87;;;13.47;;
52586;SDS011;38480;52.724;6.436;2024-02-21T06:06:59;39.33;;;13.43;;
52586;SDS011;38480;52.724;6.436;2024-02-21T06:09:25;41.70;;;13.80;;
52586;SDS011;38480;52.724;6.436;2024-02-21T06:11:51;35.87;;;14.60;;
52586;SDS011;38480;52.724;6.436;2024-02-21T06:14:17;39.40;;;15.40;;
52586;SDS011;38480;52.724;6.436;2024-02-21T06:16:43;40.07;;;15.00;;
52586;SDS011;38480;52.724;6.436;2024-02-21T06:19:09;46.67;;;16.07;;
52586;SDS011;38480;52.724;6.436;2024-02-21T06:21:36;36.97;;;14.30;;
52586;SDS011;38480;52.724;6.436;2024-02-21T06:24:02;45.27;;;16.80;;
52586;SDS011;38480;52.724;6.436;2024-02-21T06:26:28;38.87;;;15.83;;
52586;SDS011;38480;52.724;6.436;2024-02-21T06:28:54;34.07;;;15.83;;
52586;SDS011;38480;52.724;6.436;2024-02-21T06:31:20;48.47;;;17.23;;
52586;SDS011;38480;52.724;6.436;2024-02-21T06:33:46;41.10;;;16.67;;
52586;SDS011;38480;52.724;6.436;2024-02-21T06:36:12;46.77;;;16.73;;
52586;SDS011;38480;52.724;6.436;2024-02-21T06:38:38;45.83;;;16.83;;
52586;SDS011;38480;52.724;6.436;2024-02-21T06:41:04;34.17;;;16.13;;
52586;SDS011;38480;52.724;6.436;2024-02-21T06:43:30;39.70;;;16.87;;
52586;SDS011;38480;52.724;6.436;2024-02-21T06:45:56;45.33;;;17.97;;
52586;SDS011;38480;52.724;6.436;2024-02-21T06:48:22;45.40;;;19.00;;
52586;SDS011;38480;52.724;6.436;2024-02-21T06:50:48;49.97;;;16.97;;
52586;SDS011;38480;52.724;6.436;2024-02-21T06:53:14;49.13;;;17.40;;
52586;SDS011;38480;52.724;6.436;2024-02-21T06:55:40;38.00;;;18.20;;
52586;SDS011;38480;52.724;6.436;2024-02-21T06:58:06;39.50;;;19.10;;
52586;SDS011;38480;52.724;6.436;2024-02-21T07:00:36;49.73;;;19.20;;
52586;SDS011;38480;52.724;6.436;2024-02-21T07:03:02;43.80;;;19.33;;
52586;SDS011;38480;52.724;6.436;2024-02-21T07:05:28;41.83;;;18.40;;
52586;SDS011;38480;52.724;6.436;2024-02-21T07:07:54;41.67;;;17.63;;
52586;SDS011;38480;52.724;6.436;2024-02-21T07:10:20;39.70;;;17.47;;
52586;SDS011;38480;52.724;6.436;2024-02-21T07:12:46;47.03;;;18.47;;
52586;SDS011;38480;52.724;6.436;2024-02-21T07:15:13;40.97;;;17.67;;
52586;SDS011;38480;52.724;6.436;2024-02-21T07:17:39;41.57;;;18.07;;
52586;SDS011;38480;52.724;6.436;2024-02-21T07:20:06;34.77;;;18.00;;
52586;SDS011;38480;52.724;6.436;2024-02-21T07:22:32;47.70;;;20.27;;
52586;SDS011;38480;52.724;6.436;2024-02-21T07:24:58;35.93;;;19.03;;
52586;SDS011;38480;52.724;6.436;2024-02-21T07:27:24;35.77;;;16.83;;
52586;SDS011;38480;52.724;6.436;2024-02-21T07:29:53;33.67;;;16.70;;
52586;SDS011;38480;52.724;6.436;2024-02-21T07:32:19;35.47;;;17.80;;
52586;SDS011;38480;52.724;6.436;2024-02-21T07:34:45;29.97;;;17.03;;
52586;SDS011;38480;52.724;6.436;2024-02-21T07:37:11;34.43;;;16.97;;
52586;SDS011;38480;52.724;6.436;2024-02-21T07:39:37;33.07;;;16.73;;
52586;SDS011;38480;52.724;6.436;2024-02-21T07:42:03;32.87;;;18.23;;
52586;SDS011;38480;52.724;6.436;2024-02-21T07:44:29;36.77;;;16.50;;
52586;SDS011;38480;52.724;6.436;2024-02-21T07:46:56;29.13;;;16.47;;
52586;SDS011;38480;52.724;6.436;2024-02-21T07:49:22;27.53;;;16.47;;
52586;SDS011;38480;52.724;6.436;2024-02-21T07:51:48;33.80;;;17.70;;
52586;SDS011;38480;52.724;6.436;2024-02-21T07:54:15;34.67;;;17.13;;
52586;SDS011;38480;52.724;6.436;2024-02-21T07:56:41;34.03;;;18.97;;
52586;SDS011;38480;52.724;6.436;2024-02-21T07:59:07;37.80;;;19.77;;
52586;SDS011;38480;52.724;6.436;2024-02-21T08:01:33;40.50;;;19.87;;
52586;SDS011;38480;52.724;6.436;2024-02-21T08:04:00;43.47;;;20.57;;
52586;SDS011;38480;52.724;6.436;2024-02-21T08:06:26;43.07;;;22.13;;
52586;SDS011;38480;52.724;6.436;2024-02-21T08:08:52;34.60;;;20.43;;
52586;SDS011;38480;52.724;6.436;2024-02-21T08:11:18;39.67;;;20.90;;
52586;SDS011;38480;52.724;6.436;2024-02-21T08:13:44;33.83;;;20.50;;
52586;SDS011;38480;52.724;6.436;2024-02-21T08:16:10;43.17;;;22.53;;
52586;SDS011;38480;52.724;6.436;2024-02-21T08:18:36;36.67;;;19.40;;
52586;SDS011;38480;52.724;6.436;2024-02-21T08:21:03;40.73;;;22.27;;
52586;SDS011;38480;52.724;6.436;2024-02-21T08:23:29;33.20;;;20.13;;
52586;SDS011;38480;52.724;6.436;2024-02-21T08:25:56;32.30;;;20.00;;
52586;SDS011;38480;52.724;6.436;2024-02-21T08:28:23;35.33;;;19.63;;
52586;SDS011;38480;52.724;6.436;2024-02-21T08:30:50;33.00;;;19.17;;
52586;SDS011;38480;52.724;6.436;2024-02-21T08:33:16;32.13;;;20.40;;
52586;SDS011;38480;52.724;6.436;2024-02-21T08:35:42;34.53;;;20.10;;
52586;SDS011;38480;52.724;6.436;2024-02-21T08:38:08;34.40;;;18.67;;
52586;SDS011;38480;52.724;6.436;2024-02-21T08:40:34;30.53;;;19.57;;
52586;SDS011;38480;52.724;6.436;2024-02-21T08:43:01;35.63;;;20.73;;
52586;SDS011;38480;52.724;6.436;2024-02-21T08:45:28;32.87;;;20.07;;
52586;SDS011;38480;52.724;6.436;2024-02-21T08:47:54;32.33;;;19.07;;
52586;SDS011;38480;52.724;6.436;2024-02-21T08:50:20;33.83;;;19.73;;
52586;SDS011;38480;52.724;6.436;2024-02-21T08:52:46;31.33;;;20.03;;
52586;SDS011;38480;52.724;6.436;2024-02-21T08:55:12;32.87;;;19.17;;
52586;SDS011;38480;52.724;6.436;2024-02-21T08:57:39;31.23;;;20.77;;
52586;SDS011;38480;52.724;6.436;2024-02-21T09:00:06;34.27;;;21.23;;
52586;SDS011;38480;52.724;6.436;2024-02-21T09:02:37;32.43;;;21.03;;
52586;SDS011;38480;52.724;6.436;2024-02-21T09:05:04;39.67;;;19.77;;
52586;SDS011;38480;52.724;6.436;2024-02-21T09:07:30;33.30;;;20.60;;
52586;SDS011;38480;52.724;6.436;2024-02-21T09:09:56;31.17;;;20.63;;
52586;SDS011;38480;52.724;6.436;2024-02-21T09:12:22;29.70;;;18.83;;
52586;SDS011;38480;52.724;6.436;2024-02-21T09:14:48;36.83;;;20.80;;
52586;SDS011;38480;52.724;6.436;2024-02-21T09:17:15;33.00;;;19.60;;
52586;SDS011;38480;52.724;6.436;2024-02-21T09:19:49;36.50;;;21.77;;
52586;SDS011;38480;52.724;6.436;2024-02-21T09:22:16;33.07;;;18.70;;
52586;SDS011;38480;52.724;6.436;2024-02-21T09:24:41;30.37;;;19.90;;
52586;SDS011;38480;52.724;6.436;2024-02-21T09:27:08;30.43;;;18.37;;
52586;SDS011;38480;52.724;6.436;2024-02-21T09:29:34;28.33;;;17.73;;
52586;SDS011;38480;52.724;6.436;2024-02-21T09:32:01;30.23;;;18.43;;
52586;SDS011;38480;52.724;6.436;2024-02-21T09:34:27;35.27;;;17.07;;
52586;SDS011;38480;52.724;6.436;2024-02-21T09:36:54;28.07;;;19.23;;
52586;SDS011;38480;52.724;6.436;2024-02-21T09:39:20;35.73;;;18.60;;
52586;SDS011;38480;52.724;6.436;2024-02-21T09:41:50;28.93;;;17.87;;
52586;SDS011;38480;52.724;6.436;2024-02-21T09:44:21;27.37;;;17.40;;
52586;SDS011;38480;52.724;6.436;2024-02-21T09:51:45;27.57;;;16.60;;
52586;SDS011;38480;52.724;6.436;2024-02-21T09:54:13;23.73;;;15.40;;
52586;SDS011;38480;52.724;6.436;2024-02-21T09:56:41;21.17;;;16.07;;
52586;SDS011;38480;52.724;6.436;2024-02-21T09:59:07;29.03;;;15.90;;
52586;SDS011;38480;52.724;6.436;2024-02-21T10:01:33;23.83;;;13.70;;
52586;SDS011;38480;52.724;6.436;2024-02-21T10:03:59;27.47;;;14.73;;
52586;SDS011;38480;52.724;6.436;2024-02-21T10:06:27;26.47;;;13.83;;
52586;SDS011;38480;52.724;6.436;2024-02-21T10:08:53;20.97;;;13.63;;
52586;SDS011;38480;52.724;6.436;2024-02-21T10:11:25;20.03;;;13.40;;
52586;SDS011;38480;52.724;6.436;2024-02-21T10:14:02;22.48;;;12.57;;
52586;SDS011;38480;52.724;6.436;2024-02-21T10:16:29;28.00;;;13.97;;
52586;SDS011;38480;52.724;6.436;2024-02-21T10:18:55;34.17;;;12.50;;
52586;SDS011;38480;52.724;6.436;2024-02-21T10:21:21;24.80;;;13.00;;
52586;SDS011;38480;52.724;6.436;2024-02-21T10:23:48;27.13;;;13.17;;
52586;SDS011;38480;52.724;6.436;2024-02-21T10:26:15;22.63;;;11.27;;
52586;SDS011;38480;52.724;6.436;2024-02-21T10:28:41;18.70;;;11.37;;
52586;SDS011;38480;52.724;6.436;2024-02-21T10:31:09;23.57;;;10.37;;
52586;SDS011;38480;52.724;6.436;2024-02-21T10:33:36;17.70;;;10.23;;
52586;SDS011;38480;52.724;6.436;2024-02-21T10:36:09;27.37;;;11.70;;
52586;SDS011;38480;52.724;6.436;2024-02-21T10:38:38;20.37;;;10.67;;
52586;SDS011;38480;52.724;6.436;2024-02-21T10:41:05;21.30;;;11.03;;
52586;SDS011;38480;52.724;6.436;2024-02-21T10:43:38;23.53;;;11.23;;
52586;SDS011;38480;52.724;6.436;2024-02-21T10:46:05;18.13;;;10.03;;
52586;SDS011;38480;52.724;6.436;2024-02-21T10:48:38;16.03;;;9.73;;
52586;SDS011;38480;52.724;6.436;2024-02-21T10:51:17;17.23;;;8.70;;
52586;SDS011;38480;52.724;6.436;2024-02-21T10:53:45;16.77;;;9.73;;
52586;SDS011;38480;52.724;6.436;2024-02-21T10:56:16;19.30;;;9.80;;
52586;SDS011;38480;52.724;6.436;2024-02-21T10:58:44;19.55;;;9.02;;
52586;SDS011;38480;52.724;6.436;2024-02-21T11:01:12;26.90;;;9.90;;
52586;SDS011;38480;52.724;6.436;2024-02-21T11:03:40;16.30;;;9.57;;
52586;SDS011;38480;52.724;6.436;2024-02-21T11:06:06;18.53;;;9.00;;
52586;SDS011;38480;52.724;6.436;2024-02-21T11:08:33;16.77;;;8.80;;
52586;SDS011;38480;52.724;6.436;2024-02-21T11:10:59;14.33;;;8.80;;
52586;SDS011;38480;52.724;6.436;2024-02-21T11:13:31;16.27;;;8.93;;
52586;SDS011;38480;52.724;6.436;2024-02-21T11:18:34;17.10;;;9.47;;
52586;SDS011;38480;52.724;6.436;2024-02-21T11:21:00;19.30;;;8.83;;
52586;SDS011;38480;52.724;6.436;2024-02-21T11:23:26;18.60;;;9.03;;
52586;SDS011;38480;52.724;6.436;2024-02-21T11:25:52;18.70;;;9.63;;
52586;SDS011;38480;52.724;6.436;2024-02-21T11:28:25;15.10;;;9.30;;
52586;SDS011;38480;52.724;6.436;2024-02-21T11:30:51;18.45;;;8.15;;
52586;SDS011;38480;52.724;6.436;2024-02-21T11:33:19;18.00;;;9.90;;
52586;SDS011;38480;52.724;6.436;2024-02-21T11:35:48;16.33;;;8.53;;
52586;SDS011;38480;52.724;6.436;2024-02-21T11:38:14;18.03;;;8.37;;
52586;SDS011;38480;52.724;6.436;2024-02-21T11:40:43;14.87;;;8.47;;
52586;SDS011;38480;52.724;6.436;2024-02-21T11:43:09;12.43;;;8.27;;
52586;SDS011;38480;52.724;6.436;2024-02-21T11:45:35;17.37;;;9.73;;
52586;SDS011;38480;52.724;6.436;2024-02-21T11:48:01;16.13;;;8.97;;
52586;SDS011;38480;52.724;6.436;2024-02-21T11:50:29;20.67;;;9.07;;
52586;SDS011;38480;52.724;6.436;2024-02-21T11:52:55;15.57;;;9.40;;
52586;SDS011;38480;52.724;6.436;2024-02-21T11:55:22;14.20;;;8.03;;
52586;SDS011;38480;52.724;6.436;2024-02-21T11:57:48;13.37;;;7.63;;
52586;SDS011;38480;52.724;6.436;2024-02-21T12:00:15;15.23;;;7.97;;
52586;SDS011;38480;52.724;6.436;2024-02-21T12:02:41;17.13;;;7.63;;
52586;SDS011;38480;52.724;6.436;2024-02-21T12:05:08;15.43;;;8.30;;
52586;SDS011;38480;52.724;6.436;2024-02-21T12:07:36;11.67;;;7.07;;
52586;SDS011;38480;52.724;6.436;2024-02-21T12:10:06;14.47;;;7.30;;
52586;SDS011;38480;52.724;6.436;2024-02-21T12:12:32;13.13;;;7.07;;
52586;SDS011;38480;52.724;6.436;2024-02-21T12:15:01;12.83;;;6.70;;
52586;SDS011;38480;52.724;6.436;2024-02-21T12:17:29;11.17;;;7.20;;
52586;SDS011;38480;52.724;6.436;2024-02-21T12:19:55;9.80;;;6.57;;
52586;SDS011;38480;52.724;6.436;2024-02-21T12:22:22;14.93;;;7.20;;
52586;SDS011;38480;52.724;6.436;2024-02-21T12:24:48;11.30;;;6.80;;
52586;SDS011;38480;52.724;6.436;2024-02-21T12:27:14;12.80;;;6.47;;
52586;SDS011;38480;52.724;6.436;2024-02-21T12:29:40;11.80;;;6.47;;
52586;SDS011;38480;52.724;6.436;2024-02-21T12:32:06;9.57;;;6.10;;
52586;SDS011;38480;52.724;6.436;2024-02-21T12:34:32;12.57;;;6.27;;
52586;SDS011;38480;52.724;6.436;2024-02-21T12:36:59;10.87;;;6.03;;
52586;SDS011;38480;52.724;6.436;2024-02-21T12:39:25;10.93;;;6.13;;
52586;SDS011;38480;52.724;6.436;2024-02-21T12:41:53;10.63;;;6.17;;
52586;SDS011;38480;52.724;6.436;2024-02-21T12:44:21;9.40;;;5.93;;
52586;SDS011;38480;52.724;6.436;2024-02-21T12:46:47;10.83;;;5.80;;
52586;SDS011;38480;52.724;6.436;2024-02-21T12:49:17;10.97;;;5.50;;
52586;SDS011;38480;52.724;6.436;2024-02-21T12:51:44;9.73;;;5.77;;
52586;SDS011;38480;52.724;6.436;2024-02-21T12:54:11;7.33;;;5.00;;
52586;SDS011;38480;52.724;6.436;2024-02-21T12:56:38;8.83;;;5.53;;
52586;SDS011;38480;52.724;6.436;2024-02-21T12:59:05;8.60;;;5.67;;
52586;SDS011;38480;52.724;6.436;2024-02-21T13:01:34;6.80;;;5.23;;
52586;SDS011;38480;52.724;6.436;2024-02-21T13:04:00;9.70;;;5.57;;
52586;SDS011;38480;52.724;6.436;2024-02-21T13:06:26;12.10;;;6.27;;
52586;SDS011;38480;52.724;6.436;2024-02-21T13:08:53;10.23;;;5.73;;
52586;SDS011;38480;52.724;6.436;2024-02-21T13:11:19;7.83;;;5.53;;
52586;SDS011;38480;52.724;6.436;2024-02-21T13:13:45;12.10;;;6.67;;
52586;SDS011;38480;52.724;6.436;2024-02-21T13:16:11;8.00;;;5.33;;
52586;SDS011;38480;52.724;6.436;2024-02-21T13:18:37;9.73;;;5.80;;
52586;SDS011;38480;52.724;6.436;2024-02-21T13:21:07;8.60;;;5.60;;
52586;SDS011;38480;52.724;6.436;2024-02-21T13:23:33;8.30;;;5.73;;
52586;SDS011;38480;52.724;6.436;2024-02-21T13:25:59;8.57;;;6.13;;
52586;SDS011;38480;52.724;6.436;2024-02-21T13:28:25;12.77;;;6.17;;
52586;SDS011;38480;52.724;6.436;2024-02-21T13:30:51;9.43;;;5.23;;
52586;SDS011;38480;52.724;6.436;2024-02-21T13:33:17;9.80;;;5.43;;
52586;SDS011;38480;52.724;6.436;2024-02-21T13:35:43;10.27;;;5.50;;
52586;SDS011;38480;52.724;6.436;2024-02-21T13:38:09;9.87;;;6.27;;
52586;SDS011;38480;52.724;6.436;2024-02-21T13:40:36;8.43;;;5.93;;
52586;SDS011;38480;52.724;6.436;2024-02-21T13:43:02;9.47;;;5.73;;
52586;SDS011;38480;52.724;6.436;2024-02-21T13:45:28;13.13;;;5.70;;
52586;SDS011;38480;52.724;6.436;2024-02-21T13:47:54;8.90;;;6.17;;
52586;SDS011;38480;52.724;6.436;2024-02-21T13:50:23;8.80;;;5.50;;
52586;SDS011;38480;52.724;6.436;2024-02-21T13:52:49;14.73;;;6.20;;
52586;SDS011;38480;52.724;6.436;2024-02-21T13:55:15;11.80;;;6.10;;
52586;SDS011;38480;52.724;6.436;2024-02-21T13:57:42;13.70;;;7.23;;
52586;SDS011;38480;52.724;6.436;2024-02-21T14:00:09;11.93;;;5.80;;
52586;SDS011;38480;52.724;6.436;2024-02-21T14:02:36;11.87;;;6.50;;
52586;SDS011;38480;52.724;6.436;2024-02-21T14:05:02;13.57;;;5.50;;
52586;SDS011;38480;52.724;6.436;2024-02-21T14:07:30;12.07;;;5.47;;
52586;SDS011;38480;52.724;6.436;2024-02-21T14:09:58;10.33;;;6.00;;
52586;SDS011;38480;52.724;6.436;2024-02-21T14:12:24;10.10;;;5.47;;
52586;SDS011;38480;52.724;6.436;2024-02-21T14:14:50;12.87;;;5.80;;
52586;SDS011;38480;52.724;6.436;2024-02-21T14:17:17;16.03;;;6.97;;
52586;SDS011;38480;52.724;6.436;2024-02-21T14:19:43;15.43;;;6.03;;
52586;SDS011;38480;52.724;6.436;2024-02-21T14:22:09;10.77;;;5.50;;
52586;SDS011;38480;52.724;6.436;2024-02-21T14:24:36;11.50;;;5.47;;
52586;SDS011;38480;52.724;6.436;2024-02-21T14:27:02;9.30;;;5.87;;
52586;SDS011;38480;52.724;6.436;2024-02-21T14:29:28;9.90;;;5.87;;
52586;SDS011;38480;52.724;6.436;2024-02-21T14:31:54;11.20;;;5.90;;